Accueil
METAR-TAF:

METAR-TAF

Aéroports :

Base aérienne

Tulln an der Donau, Autriche

latitude: 48-19N, longitude: 016-07E, altitude: 175 m

METAR: absent

Heure: 14:18 (12:18 UTC)

Prévision

Le bulletin a été fait il y a 1 heure et 3 minutes, à 11:15 UTC
Prévision valable du 12 à 12 UTC au 12 à 21 UTC
Vent 8 kt de ouest/sud-ouest
Visibilité 10 km ou plus
Quelques nuages à une hauteur de 6000 ft
Temporairement
du 12 à 12 UTC au 12 à 17 UTC
Quelques nuages à une hauteur de 5000 ft, Cumulonimbus.
Nuages fragmentés à une hauteur de 6000 ft
orage, pluie
Temporairement
du 12 à 19 UTC au 12 à 21 UTC
Visibilité: 6000 m
Nuages fragmentés à une hauteur de 4000 ft
Quelques nuages à une hauteur de 4500 ft, Cumulus congestus.
averses de pluie

TAF: LOXT 121115Z 1212/1221 25008KT 9999 FEW060 TEMPO 1212/1217 TSRA FEW050CB BKN060 TEMPO 1219/1221 6000 SHRA BKN040 FEW045TCU

Observations et prévisions météorologiques de plus de 4000 aéroports (messages METAR et TAF).

Les stations disponibles sont représentées par des disques jaunes et rouges sur la carte.

Passer la souris dessus pour voir le nom de la station.

Cliquer dessus pour voir les observations et prévisions météorologiques.

Pour changer de carte: cliquez sur les boutons verts avec une croix noire pour zoomer, sur le bouton vert avec un tiret pour effectuer un zoom arrière, ou sur les flèches vertes pour les cartes adjacentes.


METAR-TAF: